sensor_id;sensor_type;location;lat;lon;timestamp;pressure;altitude;pressure_sealevel;temperature;humidity
55066;BME280;40964;42.114;24.220;2023-04-02T00:01:16;96879.91;;;7.40;94.27
55066;BME280;40964;42.114;24.220;2023-04-02T00:06:32;96896.97;;;7.24;93.10
55066;BME280;40964;42.114;24.220;2023-04-02T00:11:36;96915.59;;;6.91;96.02
55066;BME280;40964;42.114;24.220;2023-04-02T00:14:14;96919.38;;;6.95;96.58
55066;BME280;40964;42.114;24.220;2023-04-02T00:16:41;96927.28;;;6.89;96.52
55066;BME280;40964;42.114;24.220;2023-04-02T00:19:13;96919.44;;;6.89;97.42
55066;BME280;40964;42.114;24.220;2023-04-02T00:21:44;96922.28;;;6.87;97.42
55066;BME280;40964;42.114;24.220;2023-04-02T00:24:16;96927.31;;;6.82;97.35
55066;BME280;40964;42.114;24.220;2023-04-02T00:26:47;96934.31;;;6.88;97.69
55066;BME280;40964;42.114;24.220;2023-04-02T00:29:14;96916.81;;;6.89;97.73
55066;BME280;40964;42.114;24.220;2023-04-02T00:31:43;96916.03;;;6.88;97.73
55066;BME280;40964;42.114;24.220;2023-04-02T00:34:18;96914.38;;;6.94;96.88
55066;BME280;40964;42.114;24.220;2023-04-02T00:36:45;96924.84;;;6.94;96.52
55066;BME280;40964;42.114;24.220;2023-04-02T00:39:21;96920.19;;;6.96;95.69
55066;BME280;40964;42.114;24.220;2023-04-02T00:41:48;96908.94;;;6.95;95.68
55066;BME280;40964;42.114;24.220;2023-04-02T00:44:23;96903.03;;;7.00;94.99
55066;BME280;40964;42.114;24.220;2023-04-02T00:46:49;96908.53;;;6.92;95.86
55066;BME280;40964;42.114;24.220;2023-04-02T00:52:02;96903.81;;;6.82;96.76
55066;BME280;40964;42.114;24.220;2023-04-02T00:54:31;96911.06;;;6.80;96.19
55066;BME280;40964;42.114;24.220;2023-04-02T00:57:01;96916.72;;;6.77;95.85
55066;BME280;40964;42.114;24.220;2023-04-02T00:59:35;96925.25;;;6.91;95.30
55066;BME280;40964;42.114;24.220;2023-04-02T01:04:39;96918.59;;;6.95;95.81
55066;BME280;40964;42.114;24.220;2023-04-02T01:07:08;96923.53;;;7.03;95.54
55066;BME280;40964;42.114;24.220;2023-04-02T01:15:07;96923.63;;;7.15;94.24
55066;BME280;40964;42.114;24.220;2023-04-02T01:20:23;96915.84;;;7.08;94.36
55066;BME280;40964;42.114;24.220;2023-04-02T01:31:21;96918.25;;;7.28;92.77
55066;BME280;40964;42.114;24.220;2023-04-02T01:33:46;96921.25;;;7.31;92.61
55066;BME280;40964;42.114;24.220;2023-04-02T01:36:22;96924.44;;;7.33;91.90
55066;BME280;40964;42.114;24.220;2023-04-02T01:39:06;96932.75;;;7.30;92.66
55066;BME280;40964;42.114;24.220;2023-04-02T01:44:33;96932.81;;;7.42;91.08
55066;BME280;40964;42.114;24.220;2023-04-02T01:47:02;96928.38;;;7.43;90.67
55066;BME280;40964;42.114;24.220;2023-04-02T01:49:32;96928.59;;;7.41;90.32
55066;BME280;40964;42.114;24.220;2023-04-02T01:51:58;96927.22;;;7.38;90.29
55066;BME280;40964;42.114;24.220;2023-04-02T01:54:24;96906.66;;;7.24;89.14
55066;BME280;40964;42.114;24.220;2023-04-02T01:56:50;96923.28;;;7.29;89.25
55066;BME280;40964;42.114;24.220;2023-04-02T01:59:18;96929.31;;;7.30;89.29
55066;BME280;40964;42.114;24.220;2023-04-02T02:02:04;96881.09;;;7.01;89.64
55066;BME280;40964;42.114;24.220;2023-04-02T02:04:32;96930.91;;;7.31;89.56
55066;BME280;40964;42.114;24.220;2023-04-02T02:06:58;96918.78;;;7.36;89.84
55066;BME280;40964;42.114;24.220;2023-04-02T02:09:31;96919.66;;;7.30;89.67
55066;BME280;40964;42.114;24.220;2023-04-02T02:11:58;96925.31;;;7.27;89.99
55066;BME280;40964;42.114;24.220;2023-04-02T02:14:27;96920.47;;;7.31;88.59
55066;BME280;40964;42.114;24.220;2023-04-02T02:16:55;96919.66;;;7.30;88.22
55066;BME280;40964;42.114;24.220;2023-04-02T02:19:41;96926.09;;;7.28;88.45
55066;BME280;40964;42.114;24.220;2023-04-02T02:24:36;96923.56;;;7.21;87.54
55066;BME280;40964;42.114;24.220;2023-04-02T02:29:54;96927.59;;;6.99;88.86
55066;BME280;40964;42.114;24.220;2023-04-02T02:32:22;96927.81;;;6.97;88.65
55066;BME280;40964;42.114;24.220;2023-04-02T02:34:57;96931.44;;;6.96;87.98
55066;BME280;40964;42.114;24.220;2023-04-02T02:37:34;96929.56;;;7.03;88.29
55066;BME280;40964;42.114;24.220;2023-04-02T02:40:02;96941.91;;;6.96;87.65
55066;BME280;40964;42.114;24.220;2023-04-02T02:42:39;96934.28;;;6.95;86.91
55066;BME280;40964;42.114;24.220;2023-04-02T02:45:15;96926.44;;;6.95;87.08
55066;BME280;40964;42.114;24.220;2023-04-02T02:47:44;96927.00;;;6.97;86.40
55066;BME280;40964;42.114;24.220;2023-04-02T02:50:19;96923.81;;;6.95;86.59
55066;BME280;40964;42.114;24.220;2023-04-02T02:52:51;96924.16;;;6.98;87.06
55066;BME280;40964;42.114;24.220;2023-04-02T02:55:21;96931.94;;;6.87;87.08
55066;BME280;40964;42.114;24.220;2023-04-02T02:57:51;96929.75;;;6.83;86.67
55066;BME280;40964;42.114;24.220;2023-04-02T03:00:18;96929.75;;;6.83;86.46
55066;BME280;40964;42.114;24.220;2023-04-02T03:02:45;96931.88;;;6.93;85.95
55066;BME280;40964;42.114;24.220;2023-04-02T03:05:16;96919.75;;;6.99;84.04
55066;BME280;40964;42.114;24.220;2023-04-02T03:07:44;96928.50;;;7.11;82.69
55066;BME280;40964;42.114;24.220;2023-04-02T03:10:18;96926.59;;;7.18;82.81
55066;BME280;40964;42.114;24.220;2023-04-02T03:23:50;96924.94;;;7.24;81.44
55066;BME280;40964;42.114;24.220;2023-04-02T03:26:29;96903.88;;;7.19;80.68
55066;BME280;40964;42.114;24.220;2023-04-02T03:29:15;96910.63;;;7.26;78.93
55066;BME280;40964;42.114;24.220;2023-04-02T03:31:53;96917.41;;;7.34;78.93
55066;BME280;40964;42.114;24.220;2023-04-02T03:36:57;96925.19;;;7.40;79.62
55066;BME280;40964;42.114;24.220;2023-04-02T03:39:38;96921.53;;;7.42;78.91
55066;BME280;40964;42.114;24.220;2023-04-02T03:49:48;96937.53;;;7.52;77.36
55066;BME280;40964;42.114;24.220;2023-04-02T03:52:25;96941.09;;;7.57;76.98
55066;BME280;40964;42.114;24.220;2023-04-02T03:54:53;96935.66;;;7.59;77.51
55066;BME280;40964;42.114;24.220;2023-04-02T03:57:37;96934.63;;;7.60;77.71
55066;BME280;40964;42.114;24.220;2023-04-02T04:00:26;96932.88;;;7.54;78.58
55066;BME280;40964;42.114;24.220;2023-04-02T04:02:59;96939.34;;;7.51;79.40
55066;BME280;40964;42.114;24.220;2023-04-02T04:05:29;96938.91;;;7.54;78.85
55066;BME280;40964;42.114;24.220;2023-04-02T04:08:01;96938.09;;;7.54;79.04
55066;BME280;40964;42.114;24.220;2023-04-02T04:10:28;96945.97;;;7.54;78.81
55066;BME280;40964;42.114;24.220;2023-04-02T04:13:02;96948.00;;;7.52;78.72
55066;BME280;40964;42.114;24.220;2023-04-02T04:23:32;96934.84;;;7.58;78.17
55066;BME280;40964;42.114;24.220;2023-04-02T04:26:03;96937.81;;;7.62;78.49
55066;BME280;40964;42.114;24.220;2023-04-02T04:31:22;96931.16;;;7.66;76.33
55066;BME280;40964;42.114;24.220;2023-04-02T04:33:54;96951.13;;;7.79;76.21
55066;BME280;40964;42.114;24.220;2023-04-02T04:36:31;96942.03;;;7.81;76.76
55066;BME280;40964;42.114;24.220;2023-04-02T04:39:05;96938.09;;;7.90;76.54
55066;BME280;40964;42.114;24.220;2023-04-02T04:41:34;96937.91;;;7.92;76.74
55066;BME280;40964;42.114;24.220;2023-04-02T04:44:24;96955.94;;;8.00;76.04
55066;BME280;40964;42.114;24.220;2023-04-02T04:47:01;96943.44;;;7.84;77.30
55066;BME280;40964;42.114;24.220;2023-04-02T04:49:48;96958.69;;;7.87;77.60
55066;BME280;40964;42.114;24.220;2023-04-02T04:52:23;96959.88;;;7.91;78.61
55066;BME280;40964;42.114;24.220;2023-04-02T04:54:50;96968.63;;;7.96;78.36
55066;BME280;40964;42.114;24.220;2023-04-02T04:57:26;96970.41;;;7.84;79.76
55066;BME280;40964;42.114;24.220;2023-04-02T05:00:09;96965.97;;;7.85;80.38
55066;BME280;40964;42.114;24.220;2023-04-02T05:02:51;96955.44;;;7.73;81.56
55066;BME280;40964;42.114;24.220;2023-04-02T05:05:27;96971.78;;;7.68;81.92
55066;BME280;40964;42.114;24.220;2023-04-02T05:08:12;96963.88;;;7.75;82.41
55066;BME280;40964;42.114;24.220;2023-04-02T05:10:47;96964.94;;;7.86;82.44
55066;BME280;40964;42.114;24.220;2023-04-02T05:13:21;96963.47;;;7.90;82.41
55066;BME280;40964;42.114;24.220;2023-04-02T05:16:22;96961.47;;;7.92;83.54
55066;BME280;40964;42.114;24.220;2023-04-02T05:19:14;96963.59;;;8.13;82.78
55066;BME280;40964;42.114;24.220;2023-04-02T05:22:19;96972.41;;;8.37;81.59
55066;BME280;40964;42.114;24.220;2023-04-02T05:25:06;96972.28;;;8.74;81.16
55066;BME280;40964;42.114;24.220;2023-04-02T05:27:47;96976.00;;;9.08;79.99
55066;BME280;40964;42.114;24.220;2023-04-02T05:32:58;96965.72;;;9.42;79.32
55066;BME280;40964;42.114;24.220;2023-04-02T05:35:32;96974.94;;;9.67;78.57
55066;BME280;40964;42.114;24.220;2023-04-02T05:38:00;96986.00;;;9.81;77.31
55066;BME280;40964;42.114;24.220;2023-04-02T05:40:45;96971.69;;;10.01;76.46
55066;BME280;40964;42.114;24.220;2023-04-02T05:43:16;96968.31;;;10.29;77.20
55066;BME280;40964;42.114;24.220;2023-04-02T05:45:51;96989.53;;;10.39;76.08
55066;BME280;40964;42.114;24.220;2023-04-02T05:48:21;96993.84;;;10.45;75.53
55066;BME280;40964;42.114;24.220;2023-04-02T05:50:51;96982.56;;;10.33;74.54
55066;BME280;40964;42.114;24.220;2023-04-02T05:53:29;96985.06;;;10.39;73.35
55066;BME280;40964;42.114;24.220;2023-04-02T05:56:06;96999.19;;;10.50;74.95
55066;BME280;40964;42.114;24.220;2023-04-02T05:59:26;97006.28;;;10.49;77.06
55066;BME280;40964;42.114;24.220;2023-04-02T06:02:06;97004.00;;;10.25;76.64
55066;BME280;40964;42.114;24.220;2023-04-02T06:04:43;97018.81;;;10.31;76.83
55066;BME280;40964;42.114;24.220;2023-04-02T06:07:22;97017.69;;;10.27;75.81
55066;BME280;40964;42.114;24.220;2023-04-02T06:12:42;97017.94;;;10.54;75.00
55066;BME280;40964;42.114;24.220;2023-04-02T06:15:14;97020.41;;;10.60;74.31
55066;BME280;40964;42.114;24.220;2023-04-02T06:20:17;97037.38;;;10.81;75.61
55066;BME280;40964;42.114;24.220;2023-04-02T06:22:43;97015.78;;;10.79;76.83
55066;BME280;40964;42.114;24.220;2023-04-02T06:25:29;97030.19;;;10.93;76.85
55066;BME280;40964;42.114;24.220;2023-04-02T06:28:00;97030.19;;;10.93;75.50
55066;BME280;40964;42.114;24.220;2023-04-02T06:30:31;97031.97;;;11.04;75.59
55066;BME280;40964;42.114;24.220;2023-04-02T06:32:57;97027.28;;;11.06;75.66
55066;BME280;40964;42.114;24.220;2023-04-02T06:35:23;97033.56;;;11.22;76.38
55066;BME280;40964;42.114;24.220;2023-04-02T06:37:50;97044.09;;;11.39;76.18
55066;BME280;40964;42.114;24.220;2023-04-02T06:40:49;97041.63;;;11.49;74.93
55066;BME280;40964;42.114;24.220;2023-04-02T06:46:08;97040.03;;;11.48;73.65
55066;BME280;40964;42.114;24.220;2023-04-02T06:48:36;97041.22;;;11.41;69.79
55066;BME280;40964;42.114;24.220;2023-04-02T06:51:08;97045.53;;;11.30;65.10
55066;BME280;40964;42.114;24.220;2023-04-02T06:53:43;97043.66;;;11.42;66.46
55066;BME280;40964;42.114;24.220;2023-04-02T06:58:56;97036.84;;;11.29;64.36
55066;BME280;40964;42.114;24.220;2023-04-02T07:01:25;97053.59;;;11.40;66.91
55066;BME280;40964;42.114;24.220;2023-04-02T07:03:52;97040.81;;;11.49;68.74
55066;BME280;40964;42.114;24.220;2023-04-02T07:06:19;97048.44;;;11.45;69.80
55066;BME280;40964;42.114;24.220;2023-04-02T07:08:45;97055.91;;;11.70;69.76
55066;BME280;40964;42.114;24.220;2023-04-02T07:11:17;97049.75;;;11.98;71.68
55066;BME280;40964;42.114;24.220;2023-04-02T07:13:44;97057.41;;;12.21;70.68
55066;BME280;40964;42.114;24.220;2023-04-02T07:16:13;97052.59;;;12.35;71.95
55066;BME280;40964;42.114;24.220;2023-04-02T07:18:40;97057.84;;;12.35;68.85
55066;BME280;40964;42.114;24.220;2023-04-02T07:21:06;97059.41;;;12.31;70.20
55066;BME280;40964;42.114;24.220;2023-04-02T07:23:31;97052.00;;;12.11;70.63
55066;BME280;40964;42.114;24.220;2023-04-02T07:25:57;97067.41;;;12.19;70.26
55066;BME280;40964;42.114;24.220;2023-04-02T07:28:23;97063.19;;;12.18;69.68
55066;BME280;40964;42.114;24.220;2023-04-02T07:30:50;97053.25;;;12.26;68.88
55066;BME280;40964;42.114;24.220;2023-04-02T07:33:18;97053.59;;;12.56;68.73
55066;BME280;40964;42.114;24.220;2023-04-02T07:35:45;97058.78;;;12.68;65.61
55066;BME280;40964;42.114;24.220;2023-04-02T07:38:11;97047.38;;;12.89;66.08
55066;BME280;40964;42.114;24.220;2023-04-02T07:40:37;97055.66;;;13.25;63.39
55066;BME280;40964;42.114;24.220;2023-04-02T07:43:03;97051.44;;;13.29;59.43
55066;BME280;40964;42.114;24.220;2023-04-02T07:45:29;97056.25;;;13.32;55.56
55066;BME280;40964;42.114;24.220;2023-04-02T07:47:54;97059.50;;;13.44;58.94
55066;BME280;40964;42.114;24.220;2023-04-02T07:50:20;97061.00;;;13.67;59.14
55066;BME280;40964;42.114;24.220;2023-04-02T07:52:45;97046.16;;;13.61;57.34
55066;BME280;40964;42.114;24.220;2023-04-02T07:55:13;97054.56;;;13.95;55.46
55066;BME280;40964;42.114;24.220;2023-04-02T07:57:45;97049.94;;;14.23;54.56
55066;BME280;40964;42.114;24.220;2023-04-02T08:00:13;97053.16;;;14.30;52.91
55066;BME280;40964;42.114;24.220;2023-04-02T08:02:38;97055.97;;;14.65;52.67
55066;BME280;40964;42.114;24.220;2023-04-02T08:05:04;97044.91;;;14.94;51.43
55066;BME280;40964;42.114;24.220;2023-04-02T08:07:30;97043.34;;;15.18;51.96
55066;BME280;40964;42.114;24.220;2023-04-02T08:09:55;97045.75;;;15.30;48.93
55066;BME280;40964;42.114;24.220;2023-04-02T08:12:21;97047.06;;;15.38;47.81
55066;BME280;40964;42.114;24.220;2023-04-02T08:14:46;97041.25;;;15.61;48.80
55066;BME280;40964;42.114;24.220;2023-04-02T08:17:11;97039.38;;;15.61;51.03
55066;BME280;40964;42.114;24.220;2023-04-02T08:19:37;97045.97;;;15.89;51.02
55066;BME280;40964;42.114;24.220;2023-04-02T08:22:03;97044.84;;;16.16;48.27
55066;BME280;40964;42.114;24.220;2023-04-02T08:24:29;97047.91;;;16.43;50.24
55066;BME280;40964;42.114;24.220;2023-04-02T08:26:54;97043.88;;;16.71;49.86
55066;BME280;40964;42.114;24.220;2023-04-02T08:29:21;97042.88;;;17.01;45.51
55066;BME280;40964;42.114;24.220;2023-04-02T08:31:46;97045.13;;;16.79;43.05
55066;BME280;40964;42.114;24.220;2023-04-02T08:34:12;97042.03;;;17.06;46.62
55066;BME280;40964;42.114;24.220;2023-04-02T08:36:40;97038.06;;;17.09;44.28
55066;BME280;40964;42.114;24.220;2023-04-02T08:39:07;97052.69;;;17.40;46.24
55066;BME280;40964;42.114;24.220;2023-04-02T08:41:43;97039.75;;;17.63;42.58
55066;BME280;40964;42.114;24.220;2023-04-02T08:44:25;97048.84;;;17.56;43.63
55066;BME280;40964;42.114;24.220;2023-04-02T08:47:04;97040.31;;;17.25;43.85
55066;BME280;40964;42.114;24.220;2023-04-02T08:49:41;97040.53;;;17.63;44.32
55066;BME280;40964;42.114;24.220;2023-04-02T08:52:24;97041.38;;;17.87;42.20
55066;BME280;40964;42.114;24.220;2023-04-02T08:54:50;97040.06;;;17.56;41.31
55066;BME280;40964;42.114;24.220;2023-04-02T08:57:48;97036.16;;;17.43;41.93
55066;BME280;40964;42.114;24.220;2023-04-02T09:03:49;97033.44;;;18.11;43.11
55066;BME280;40964;42.114;24.220;2023-04-02T09:05:50;97020.94;;;18.31;40.16
55066;BME280;40964;42.114;24.220;2023-04-02T09:08:20;97019.75;;;18.42;40.39
55066;BME280;40964;42.114;24.220;2023-04-02T09:11:08;97013.88;;;18.45;35.33
55066;BME280;40964;42.114;24.220;2023-04-02T09:13:42;97019.53;;;18.38;39.52
55066;BME280;40964;42.114;24.220;2023-04-02T09:16:12;97017.25;;;18.51;40.97
55066;BME280;40964;42.114;24.220;2023-04-02T09:18:39;97013.41;;;18.38;38.70
55066;BME280;40964;42.114;24.220;2023-04-02T09:23:33;97009.81;;;18.29;40.44
55066;BME280;40964;42.114;24.220;2023-04-02T09:25:58;97009.44;;;18.17;39.81
55066;BME280;40964;42.114;24.220;2023-04-02T09:28:25;97020.56;;;17.95;40.15
55066;BME280;40964;42.114;24.220;2023-04-02T09:33:46;97000.88;;;17.67;40.24
55066;BME280;40964;42.114;24.220;2023-04-02T09:36:32;97011.50;;;17.67;40.47
55066;BME280;40964;42.114;24.220;2023-04-02T09:39:01;97003.22;;;17.97;42.60
55066;BME280;40964;42.114;24.220;2023-04-02T09:41:31;96994.72;;;18.00;41.72
55066;BME280;40964;42.114;24.220;2023-04-02T09:44:33;97003.69;;;18.04;41.59
55066;BME280;40964;42.114;24.220;2023-04-02T09:47:02;97005.03;;;18.07;39.85
55066;BME280;40964;42.114;24.220;2023-04-02T09:49:38;97004.72;;;18.08;40.30
55066;BME280;40964;42.114;24.220;2023-04-02T09:54:36;96988.53;;;18.48;41.40
55066;BME280;40964;42.114;24.220;2023-04-02T09:57:25;96985.34;;;18.27;40.61
55066;BME280;40964;42.114;24.220;2023-04-02T10:02:37;96982.28;;;18.57;39.78
55066;BME280;40964;42.114;24.220;2023-04-02T10:05:16;96988.22;;;18.73;37.48
55066;BME280;40964;42.114;24.220;2023-04-02T10:07:44;96978.19;;;18.84;39.49
55066;BME280;40964;42.114;24.220;2023-04-02T10:10:30;96975.44;;;19.08;38.29
55066;BME280;40964;42.114;24.220;2023-04-02T10:15:41;96981.53;;;19.27;38.14
55066;BME280;40964;42.114;24.220;2023-04-02T10:21:26;96969.56;;;19.57;34.20
55066;BME280;40964;42.114;24.220;2023-04-02T10:23:53;96972.16;;;19.76;34.24
55066;BME280;40964;42.114;24.220;2023-04-02T10:29:29;96974.66;;;20.13;34.47
55066;BME280;40964;42.114;24.220;2023-04-02T10:32:15;96964.06;;;20.22;36.82
55066;BME280;40964;42.114;24.220;2023-04-02T10:34:48;96955.03;;;20.46;34.87
55066;BME280;40964;42.114;24.220;2023-04-02T10:39:56;96953.50;;;20.67;33.25
55066;BME280;40964;42.114;24.220;2023-04-02T10:42:36;96943.03;;;20.57;33.19
55066;BME280;40964;42.114;24.220;2023-04-02T10:48:37;96942.41;;;19.82;34.62
55066;BME280;40964;42.114;24.220;2023-04-02T10:51:27;96939.16;;;19.25;33.51
55066;BME280;40964;42.114;24.220;2023-04-02T10:56:27;96924.44;;;19.14;35.58
55066;BME280;40964;42.114;24.220;2023-04-02T10:59:28;96927.72;;;19.39;34.63
55066;BME280;40964;42.114;24.220;2023-04-02T11:01:58;96915.13;;;19.58;35.62
55066;BME280;40964;42.114;24.220;2023-04-02T11:04:31;96924.50;;;20.10;33.78
55066;BME280;40964;42.114;24.220;2023-04-02T11:07:13;96939.34;;;20.17;32.95
55066;BME280;40964;42.114;24.220;2023-04-02T11:09:45;96938.00;;;20.41;34.25
55066;BME280;40964;42.114;24.220;2023-04-02T11:12:53;96934.16;;;20.48;33.35
55066;BME280;40964;42.114;24.220;2023-04-02T11:15:18;96931.78;;;20.46;35.29
55066;BME280;40964;42.114;24.220;2023-04-02T11:17:44;96931.41;;;20.11;33.74
55066;BME280;40964;42.114;24.220;2023-04-02T11:20:42;96931.41;;;20.11;34.05
55066;BME280;40964;42.114;24.220;2023-04-02T11:23:12;96935.56;;;20.04;32.22
55066;BME280;40964;42.114;24.220;2023-04-02T11:25:40;96931.38;;;20.39;33.89
55066;BME280;40964;42.114;24.220;2023-04-02T11:28:28;96929.06;;;20.10;33.52
55066;BME280;40964;42.114;24.220;2023-04-02T11:30:55;96919.19;;;19.83;34.60
55066;BME280;40964;42.114;24.220;2023-04-02T11:35:59;96921.47;;;19.76;34.96
55066;BME280;40964;42.114;24.220;2023-04-02T11:40:57;96912.31;;;20.32;34.69
55066;BME280;40964;42.114;24.220;2023-04-02T11:48:41;96899.25;;;21.34;32.95
55066;BME280;40964;42.114;24.220;2023-04-02T11:53:45;96891.19;;;21.65;32.99
55066;BME280;40964;42.114;24.220;2023-04-02T11:56:29;96890.75;;;21.80;32.84
55066;BME280;40964;42.114;24.220;2023-04-02T12:10:01;96896.66;;;20.97;30.88
55066;BME280;40964;42.114;24.220;2023-04-02T12:14:56;96888.94;;;20.74;32.46
55066;BME280;40964;42.114;24.220;2023-04-02T12:17:38;96896.50;;;20.94;34.04
55066;BME280;40964;42.114;24.220;2023-04-02T12:22:46;96893.06;;;20.57;31.72
55066;BME280;40964;42.114;24.220;2023-04-02T12:25:32;96886.75;;;20.39;31.32
55066;BME280;40964;42.114;24.220;2023-04-02T12:30:34;96878.66;;;20.45;31.41
55066;BME280;40964;42.114;24.220;2023-04-02T12:35:42;96876.97;;;20.49;31.06
55066;BME280;40964;42.114;24.220;2023-04-02T12:38:28;96871.38;;;20.81;31.85
55066;BME280;40964;42.114;24.220;2023-04-02T12:41:43;96873.63;;;20.65;30.57
55066;BME280;40964;42.114;24.220;2023-04-02T12:43:45;96870.31;;;20.60;31.55
55066;BME280;40964;42.114;24.220;2023-04-02T12:46:12;96869.16;;;20.38;32.95
55066;BME280;40964;42.114;24.220;2023-04-02T12:48:38;96874.19;;;20.54;33.04
55066;BME280;40964;42.114;24.220;2023-04-02T12:51:04;96871.44;;;20.45;33.97
55066;BME280;40964;42.114;24.220;2023-04-02T12:53:34;96866.84;;;20.23;33.94
55066;BME280;40964;42.114;24.220;2023-04-02T12:56:00;96865.69;;;20.38;32.68
55066;BME280;40964;42.114;24.220;2023-04-02T12:58:35;96854.94;;;20.29;34.07
55066;BME280;40964;42.114;24.220;2023-04-02T13:01:16;96867.69;;;20.46;33.45
55066;BME280;40964;42.114;24.220;2023-04-02T13:06:29;96865.94;;;20.64;34.17
55066;BME280;40964;42.114;24.220;2023-04-02T13:08:55;96846.34;;;20.32;32.91
55066;BME280;40964;42.114;24.220;2023-04-02T13:11:21;96860.22;;;20.21;33.12
55066;BME280;40964;42.114;24.220;2023-04-02T13:13:48;96865.38;;;20.17;32.98
55066;BME280;40964;42.114;24.220;2023-04-02T13:18:41;96864.03;;;20.64;31.94
55066;BME280;40964;42.114;24.220;2023-04-02T13:23:42;96853.81;;;21.42;30.62
55066;BME280;40964;42.114;24.220;2023-04-02T13:26:17;96856.47;;;21.42;31.79
55066;BME280;40964;42.114;24.220;2023-04-02T13:29:15;96857.97;;;21.57;31.04
55066;BME280;40964;42.114;24.220;2023-04-02T13:31:41;96849.69;;;20.83;30.06
55066;BME280;40964;42.114;24.220;2023-04-02T13:34:07;96854.94;;;20.65;30.52
55066;BME280;40964;42.114;24.220;2023-04-02T13:36:32;96854.69;;;20.76;30.71
55066;BME280;40964;42.114;24.220;2023-04-02T13:38:58;96852.16;;;20.71;31.30
55066;BME280;40964;42.114;24.220;2023-04-02T13:41:28;96843.47;;;20.65;30.74
55066;BME280;40964;42.114;24.220;2023-04-02T13:43:57;96847.28;;;20.50;32.05
55066;BME280;40964;42.114;24.220;2023-04-02T13:46:28;96845.28;;;20.78;30.84
55066;BME280;40964;42.114;24.220;2023-04-02T13:48:54;96852.09;;;21.15;30.76
55066;BME280;40964;42.114;24.220;2023-04-02T13:51:23;96847.06;;;21.14;30.65
55066;BME280;40964;42.114;24.220;2023-04-02T13:53:54;96854.69;;;21.69;30.38
55066;BME280;40964;42.114;24.220;2023-04-02T13:56:21;96844.34;;;21.93;29.82
55066;BME280;40964;42.114;24.220;2023-04-02T13:58:49;96845.13;;;21.85;30.91
55066;BME280;40964;42.114;24.220;2023-04-02T14:01:15;96851.53;;;21.27;30.32
55066;BME280;40964;42.114;24.220;2023-04-02T14:03:41;96847.31;;;21.04;30.17
55066;BME280;40964;42.114;24.220;2023-04-02T14:08:58;96842.44;;;21.06;33.81
55066;BME280;40964;42.114;24.220;2023-04-02T14:14:26;96848.69;;;20.70;32.19
55066;BME280;40964;42.114;24.220;2023-04-02T14:27:39;96849.16;;;21.25;32.34
55066;BME280;40964;42.114;24.220;2023-04-02T14:30:52;96857.59;;;21.19;30.42
55066;BME280;40964;42.114;24.220;2023-04-02T14:36:14;96852.66;;;21.04;30.48
55066;BME280;40964;42.114;24.220;2023-04-02T14:41:28;96861.44;;;20.73;32.09
55066;BME280;40964;42.114;24.220;2023-04-02T14:44:00;96849.91;;;20.28;33.42
55066;BME280;40964;42.114;24.220;2023-04-02T14:46:37;96854.03;;;19.98;34.81
55066;BME280;40964;42.114;24.220;2023-04-02T14:49:23;96865.81;;;19.97;34.67
55066;BME280;40964;42.114;24.220;2023-04-02T14:51:57;96866.03;;;19.87;35.47
55066;BME280;40964;42.114;24.220;2023-04-02T14:54:37;96867.97;;;19.95;34.44
55066;BME280;40964;42.114;24.220;2023-04-02T15:00:02;96867.69;;;19.82;34.54
55066;BME280;40964;42.114;24.220;2023-04-02T15:02:44;96848.75;;;19.70;35.28
55066;BME280;40964;42.114;24.220;2023-04-02T15:05:38;96868.19;;;19.84;34.70
55066;BME280;40964;42.114;24.220;2023-04-02T15:11:00;96871.13;;;19.28;35.86
55066;BME280;40964;42.114;24.220;2023-04-02T15:13:44;96887.13;;;19.14;37.20
55066;BME280;40964;42.114;24.220;2023-04-02T15:16:17;96887.00;;;19.06;37.18
55066;BME280;40964;42.114;24.220;2023-04-02T15:18:44;96875.31;;;18.88;37.73
55066;BME280;40964;42.114;24.220;2023-04-02T15:24:33;96897.00;;;18.62;38.98
55066;BME280;40964;42.114;24.220;2023-04-02T15:32:54;96895.78;;;18.17;37.86
55066;BME280;40964;42.114;24.220;2023-04-02T15:35:46;96905.53;;;18.03;38.34
55066;BME280;40964;42.114;24.220;2023-04-02T15:38:42;96908.16;;;18.08;38.91
55066;BME280;40964;42.114;24.220;2023-04-02T15:41:29;96906.91;;;18.00;39.15
55066;BME280;40964;42.114;24.220;2023-04-02T15:44:09;96901.88;;;17.99;39.05
55066;BME280;40964;42.114;24.220;2023-04-02T15:49:17;96907.59;;;17.87;43.00
55066;BME280;40964;42.114;24.220;2023-04-02T15:52:15;96912.47;;;17.80;43.07
55066;BME280;40964;42.114;24.220;2023-04-02T15:54:52;96905.84;;;17.77;43.52
55066;BME280;40964;42.114;24.220;2023-04-02T16:00:28;96916.84;;;17.66;42.13
55066;BME280;40964;42.114;24.220;2023-04-02T16:11:24;96922.22;;;17.60;40.85
55066;BME280;40964;42.114;24.220;2023-04-02T16:13:51;96928.69;;;17.54;41.64
55066;BME280;40964;42.114;24.220;2023-04-02T16:16:29;96927.53;;;17.37;42.88
55066;BME280;40964;42.114;24.220;2023-04-02T16:19:18;96920.22;;;17.23;43.42
55066;BME280;40964;42.114;24.220;2023-04-02T16:22:03;96920.88;;;17.10;41.47
55066;BME280;40964;42.114;24.220;2023-04-02T16:24:30;96923.81;;;17.09;42.24
55066;BME280;40964;42.114;24.220;2023-04-02T16:48:08;96942.50;;;16.10;46.02
55066;BME280;40964;42.114;24.220;2023-04-02T16:53:31;96939.69;;;15.71;47.07
55066;BME280;40964;42.114;24.220;2023-04-02T17:09:51;96962.00;;;14.68;48.54
55066;BME280;40964;42.114;24.220;2023-04-02T17:12:26;96958.28;;;14.59;48.25
55066;BME280;40964;42.114;24.220;2023-04-02T17:15:21;96963.31;;;14.50;48.33
55066;BME280;40964;42.114;24.220;2023-04-02T17:17:47;96959.56;;;14.41;48.62
55066;BME280;40964;42.114;24.220;2023-04-02T17:20:17;96975.94;;;14.33;48.46
55066;BME280;40964;42.114;24.220;2023-04-02T17:22:45;96972.22;;;14.34;49.75
55066;BME280;40964;42.114;24.220;2023-04-02T17:25:19;96976.19;;;14.36;50.23
55066;BME280;40964;42.114;24.220;2023-04-02T17:27:47;96959.47;;;14.15;50.12